FlightSource - Aviation Photo Database

World Wide Airport Lookup


Search by ICAO
Or
Search by City

FlightSource.ca - Aviation Photo Database - RAF Scampton Information
Airport Identification
Name: RAF Scampton
ICAO: EGXP
IATA: SQZ
Airport Location
City: Scampton
Region: ENG
Country: United Kingdom
Continent: Europe
Latitude: 53.3078
Longitude: -0.550833
Airport Information
Type: Medium Airport
Elevation: 202 Feet ASL
Flight Status: EGXP
More Info: EGXP
Airport Weather    
Metar: EGXP 221450Z 28014KT 9999 FEW024 SCT025 BKN200 08/05 Q1011 BLU
TAF:


Advertisement